Search for airport 
image banner adimage banner ad
image banner ad

TUPG - Spanishtown/Virgin Gorda North Sound Water

Situé à Spanish Town, Virgin Islands British

ICAO - , IATA -

Données fournies par Airmate  

Information générale

Coordonnées: N18°29'57" W64°21'41"
Élévation : feet MSL.
 
Voir autres Aéroports à (unassigned)

Données opérationnelles

Special qualification required
Heure actuelle UTC:
Heure actuelle locale:
Météo à : TUPJ - Terrance B Lettsome Intl ( 20 km )
METAR: TUPJ 281300Z 05011KT 10SM VCSH SCT019 SCT038 25/20 A3011 RMK Q1020 VIS16KM
TAF: TAF TUPJ 281100Z 2812/0112 07015KT 9999 SCT018 PROB40 TEMPO 2812/0112 07015G25KT PROB30 TEMPO 2820/0112 SHRA
Voir NOTAMs / SUP AIP / TFR affectant cet aéroport [VIEW]
Fréquences de communication: [VIEW]

Pistes:

Identifiant RWYQFULongueur (ft)Largeur (ft)SurfaceLDA (ft)
12110°00
30290°00
0862°00
26242°00

Coordonnées de l'aéroport

Adresse: Spanish Town Virgin Islands British

Vue satellite de TUPG